sensor_id;sensor_type;location;lat;lon;timestamp;P1;durP1;ratioP1;P2;durP2;ratioP2
61013;SDS011;46899;47.542;19.082;2024-01-30T00:02:42;44.60;;;24.67;;
61013;SDS011;46899;47.542;19.082;2024-01-30T00:05:45;41.95;;;23.60;;
61013;SDS011;46899;47.542;19.082;2024-01-30T00:08:48;46.63;;;25.37;;
61013;SDS011;46899;47.542;19.082;2024-01-30T00:11:53;45.42;;;24.63;;
61013;SDS011;46899;47.542;19.082;2024-01-30T00:14:57;41.30;;;24.52;;
61013;SDS011;46899;47.542;19.082;2024-01-30T00:18:00;44.70;;;25.37;;
61013;SDS011;46899;47.542;19.082;2024-01-30T00:21:03;49.05;;;25.45;;
61013;SDS011;46899;47.542;19.082;2024-01-30T00:24:06;46.92;;;24.25;;
61013;SDS011;46899;47.542;19.082;2024-01-30T00:27:09;40.72;;;24.30;;
61013;SDS011;46899;47.542;19.082;2024-01-30T00:30:12;45.55;;;25.77;;
61013;SDS011;46899;47.542;19.082;2024-01-30T00:33:15;45.53;;;25.75;;
61013;SDS011;46899;47.542;19.082;2024-01-30T00:36:19;47.17;;;25.62;;
61013;SDS011;46899;47.542;19.082;2024-01-30T00:39:21;45.15;;;25.10;;
61013;SDS011;46899;47.542;19.082;2024-01-30T00:42:24;50.47;;;26.02;;
61013;SDS011;46899;47.542;19.082;2024-01-30T00:45:27;46.40;;;25.40;;
61013;SDS011;46899;47.542;19.082;2024-01-30T00:48:30;45.10;;;24.95;;
61013;SDS011;46899;47.542;19.082;2024-01-30T00:51:33;43.33;;;24.58;;
61013;SDS011;46899;47.542;19.082;2024-01-30T00:54:35;48.97;;;24.77;;
61013;SDS011;46899;47.542;19.082;2024-01-30T00:57:38;48.28;;;25.50;;
61013;SDS011;46899;47.542;19.082;2024-01-30T01:00:43;48.47;;;24.08;;
61013;SDS011;46899;47.542;19.082;2024-01-30T01:03:46;46.72;;;25.35;;
61013;SDS011;46899;47.542;19.082;2024-01-30T01:06:51;48.77;;;25.33;;
61013;SDS011;46899;47.542;19.082;2024-01-30T01:09:54;47.88;;;25.75;;
61013;SDS011;46899;47.542;19.082;2024-01-30T01:12:57;47.83;;;26.35;;
61013;SDS011;46899;47.542;19.082;2024-01-30T01:16:00;48.10;;;25.52;;
61013;SDS011;46899;47.542;19.082;2024-01-30T01:19:03;52.97;;;26.40;;
61013;SDS011;46899;47.542;19.082;2024-01-30T01:22:06;50.92;;;26.15;;
61013;SDS011;46899;47.542;19.082;2024-01-30T01:25:09;45.15;;;25.98;;
61013;SDS011;46899;47.542;19.082;2024-01-30T01:28:12;50.10;;;27.02;;
61013;SDS011;46899;47.542;19.082;2024-01-30T01:31:15;48.17;;;25.90;;
61013;SDS011;46899;47.542;19.082;2024-01-30T01:34:20;45.38;;;25.83;;
61013;SDS011;46899;47.542;19.082;2024-01-30T01:37:23;46.65;;;26.10;;
61013;SDS011;46899;47.542;19.082;2024-01-30T01:40:29;47.90;;;25.55;;
61013;SDS011;46899;47.542;19.082;2024-01-30T01:43:31;48.40;;;25.73;;
61013;SDS011;46899;47.542;19.082;2024-01-30T01:46:34;48.40;;;25.27;;
61013;SDS011;46899;47.542;19.082;2024-01-30T01:49:37;46.00;;;25.30;;
61013;SDS011;46899;47.542;19.082;2024-01-30T01:52:40;49.22;;;25.90;;
61013;SDS011;46899;47.542;19.082;2024-01-30T01:55:45;45.10;;;25.60;;
61013;SDS011;46899;47.542;19.082;2024-01-30T01:58:48;46.15;;;25.33;;
61013;SDS011;46899;47.542;19.082;2024-01-30T02:01:52;48.78;;;23.87;;
61013;SDS011;46899;47.542;19.082;2024-01-30T02:04:59;47.97;;;25.55;;
61013;SDS011;46899;47.542;19.082;2024-01-30T02:08:02;44.85;;;24.73;;
61013;SDS011;46899;47.542;19.082;2024-01-30T02:11:06;48.85;;;26.08;;
61013;SDS011;46899;47.542;19.082;2024-01-30T02:14:09;47.38;;;26.12;;
61013;SDS011;46899;47.542;19.082;2024-01-30T02:17:12;46.92;;;25.52;;
61013;SDS011;46899;47.542;19.082;2024-01-30T02:20:15;49.65;;;28.38;;
61013;SDS011;46899;47.542;19.082;2024-01-30T02:23:19;45.60;;;25.35;;
61013;SDS011;46899;47.542;19.082;2024-01-30T02:26:22;49.00;;;25.70;;
61013;SDS011;46899;47.542;19.082;2024-01-30T02:29:25;46.85;;;26.55;;
61013;SDS011;46899;47.542;19.082;2024-01-30T02:32:27;48.15;;;26.83;;
61013;SDS011;46899;47.542;19.082;2024-01-30T02:35:31;51.30;;;26.92;;
61013;SDS011;46899;47.542;19.082;2024-01-30T02:38:34;44.72;;;26.15;;
61013;SDS011;46899;47.542;19.082;2024-01-30T02:41:37;50.58;;;25.45;;
61013;SDS011;46899;47.542;19.082;2024-01-30T02:44:39;51.17;;;27.55;;
61013;SDS011;46899;47.542;19.082;2024-01-30T02:47:42;46.58;;;25.73;;
61013;SDS011;46899;47.542;19.082;2024-01-30T02:50:45;49.80;;;26.48;;
61013;SDS011;46899;47.542;19.082;2024-01-30T02:53:49;49.65;;;27.58;;
61013;SDS011;46899;47.542;19.082;2024-01-30T02:56:52;50.17;;;26.75;;
61013;SDS011;46899;47.542;19.082;2024-01-30T02:59:55;54.55;;;28.27;;
61013;SDS011;46899;47.542;19.082;2024-01-30T03:02:57;56.88;;;29.52;;
61013;SDS011;46899;47.542;19.082;2024-01-30T03:06:00;54.38;;;30.02;;
61013;SDS011;46899;47.542;19.082;2024-01-30T03:09:04;53.50;;;28.80;;
61013;SDS011;46899;47.542;19.082;2024-01-30T03:12:07;56.20;;;28.38;;
61013;SDS011;46899;47.542;19.082;2024-01-30T03:15:12;54.00;;;29.30;;
61013;SDS011;46899;47.542;19.082;2024-01-30T03:18:15;52.05;;;27.52;;
61013;SDS011;46899;47.542;19.082;2024-01-30T03:21:18;50.83;;;27.83;;
61013;SDS011;46899;47.542;19.082;2024-01-30T03:24:21;52.38;;;28.73;;
61013;SDS011;46899;47.542;19.082;2024-01-30T03:27:23;51.45;;;28.62;;
61013;SDS011;46899;47.542;19.082;2024-01-30T03:30:26;60.63;;;30.67;;
61013;SDS011;46899;47.542;19.082;2024-01-30T03:33:29;56.75;;;29.42;;
61013;SDS011;46899;47.542;19.082;2024-01-30T03:36:32;54.05;;;30.27;;
61013;SDS011;46899;47.542;19.082;2024-01-30T03:39:36;57.97;;;28.90;;
61013;SDS011;46899;47.542;19.082;2024-01-30T03:42:39;56.75;;;28.55;;
61013;SDS011;46899;47.542;19.082;2024-01-30T03:45:42;54.67;;;28.00;;
61013;SDS011;46899;47.542;19.082;2024-01-30T03:48:45;54.85;;;29.65;;
61013;SDS011;46899;47.542;19.082;2024-01-30T03:51:48;55.05;;;29.10;;
61013;SDS011;46899;47.542;19.082;2024-01-30T03:54:51;51.78;;;28.85;;
61013;SDS011;46899;47.542;19.082;2024-01-30T03:57:54;51.13;;;28.77;;
61013;SDS011;46899;47.542;19.082;2024-01-30T04:00:57;57.97;;;30.50;;
61013;SDS011;46899;47.542;19.082;2024-01-30T04:04:00;50.40;;;28.10;;
61013;SDS011;46899;47.542;19.082;2024-01-30T04:07:03;53.38;;;29.55;;
61013;SDS011;46899;47.542;19.082;2024-01-30T04:10:06;54.25;;;32.75;;
61013;SDS011;46899;47.542;19.082;2024-01-30T04:13:09;54.38;;;30.70;;
61013;SDS011;46899;47.542;19.082;2024-01-30T04:16:20;59.65;;;29.02;;
61013;SDS011;46899;47.542;19.082;2024-01-30T04:19:27;52.97;;;28.58;;
61013;SDS011;46899;47.542;19.082;2024-01-30T04:22:30;52.50;;;27.75;;
61013;SDS011;46899;47.542;19.082;2024-01-30T04:25:32;51.60;;;28.73;;
61013;SDS011;46899;47.542;19.082;2024-01-30T04:28:35;49.05;;;27.35;;
61013;SDS011;46899;47.542;19.082;2024-01-30T04:31:38;50.33;;;27.60;;
61013;SDS011;46899;47.542;19.082;2024-01-30T04:34:41;47.25;;;25.67;;
61013;SDS011;46899;47.542;19.082;2024-01-30T04:37:44;49.15;;;26.30;;
61013;SDS011;46899;47.542;19.082;2024-01-30T04:40:47;47.30;;;25.10;;
61013;SDS011;46899;47.542;19.082;2024-01-30T04:43:49;49.25;;;25.45;;
61013;SDS011;46899;47.542;19.082;2024-01-30T04:46:52;48.63;;;26.45;;
61013;SDS011;46899;47.542;19.082;2024-01-30T04:49:57;50.55;;;26.27;;
61013;SDS011;46899;47.542;19.082;2024-01-30T04:53:00;47.55;;;25.98;;
61013;SDS011;46899;47.542;19.082;2024-01-30T04:56:04;47.55;;;25.67;;
61013;SDS011;46899;47.542;19.082;2024-01-30T04:59:07;50.30;;;26.23;;
61013;SDS011;46899;47.542;19.082;2024-01-30T05:02:11;49.13;;;26.25;;
61013;SDS011;46899;47.542;19.082;2024-01-30T05:05:14;53.87;;;27.48;;
61013;SDS011;46899;47.542;19.082;2024-01-30T05:08:17;48.80;;;26.77;;
61013;SDS011;46899;47.542;19.082;2024-01-30T05:11:20;49.17;;;26.65;;
61013;SDS011;46899;47.542;19.082;2024-01-30T05:14:22;49.35;;;27.15;;
61013;SDS011;46899;47.542;19.082;2024-01-30T05:17:25;50.58;;;26.30;;
61013;SDS011;46899;47.542;19.082;2024-01-30T05:20:28;49.03;;;27.23;;
61013;SDS011;46899;47.542;19.082;2024-01-30T05:23:31;53.67;;;26.85;;
61013;SDS011;46899;47.542;19.082;2024-01-30T05:26:34;49.95;;;26.92;;
61013;SDS011;46899;47.542;19.082;2024-01-30T05:29:37;49.88;;;25.77;;
61013;SDS011;46899;47.542;19.082;2024-01-30T05:32:39;50.08;;;27.20;;
61013;SDS011;46899;47.542;19.082;2024-01-30T05:35:42;49.78;;;25.67;;
61013;SDS011;46899;47.542;19.082;2024-01-30T05:38:45;47.72;;;26.05;;
61013;SDS011;46899;47.542;19.082;2024-01-30T05:41:48;48.33;;;25.67;;
61013;SDS011;46899;47.542;19.082;2024-01-30T05:44:51;53.87;;;26.67;;
61013;SDS011;46899;47.542;19.082;2024-01-30T05:47:56;47.35;;;27.70;;
61013;SDS011;46899;47.542;19.082;2024-01-30T05:50:59;50.17;;;27.37;;
61013;SDS011;46899;47.542;19.082;2024-01-30T05:54:02;47.67;;;24.75;;
61013;SDS011;46899;47.542;19.082;2024-01-30T05:57:06;51.10;;;27.08;;
61013;SDS011;46899;47.542;19.082;2024-01-30T06:00:09;47.95;;;26.05;;
61013;SDS011;46899;47.542;19.082;2024-01-30T06:03:13;48.80;;;25.08;;
61013;SDS011;46899;47.542;19.082;2024-01-30T06:06:15;47.70;;;26.10;;
61013;SDS011;46899;47.542;19.082;2024-01-30T06:09:19;46.80;;;25.60;;
61013;SDS011;46899;47.542;19.082;2024-01-30T06:12:22;49.42;;;25.12;;
61013;SDS011;46899;47.542;19.082;2024-01-30T06:15:25;53.78;;;27.37;;
61013;SDS011;46899;47.542;19.082;2024-01-30T06:18:28;49.08;;;27.73;;
61013;SDS011;46899;47.542;19.082;2024-01-30T06:21:33;55.20;;;28.60;;
61013;SDS011;46899;47.542;19.082;2024-01-30T06:24:38;51.65;;;27.55;;
61013;SDS011;46899;47.542;19.082;2024-01-30T06:27:42;52.53;;;27.25;;
61013;SDS011;46899;47.542;19.082;2024-01-30T06:30:45;51.60;;;26.77;;
61013;SDS011;46899;47.542;19.082;2024-01-30T06:33:49;47.90;;;25.67;;
61013;SDS011;46899;47.542;19.082;2024-01-30T06:36:52;42.17;;;24.15;;
61013;SDS011;46899;47.542;19.082;2024-01-30T06:39:55;47.95;;;23.85;;
61013;SDS011;46899;47.542;19.082;2024-01-30T06:42:57;44.42;;;23.50;;
61013;SDS011;46899;47.542;19.082;2024-01-30T06:46:00;46.15;;;23.83;;
61013;SDS011;46899;47.542;19.082;2024-01-30T06:49:03;41.60;;;22.75;;
61013;SDS011;46899;47.542;19.082;2024-01-30T06:52:06;61.95;;;29.05;;
61013;SDS011;46899;47.542;19.082;2024-01-30T06:55:09;75.50;;;34.42;;
61013;SDS011;46899;47.542;19.082;2024-01-30T06:58:12;62.90;;;31.37;;
61013;SDS011;46899;47.542;19.082;2024-01-30T07:01:15;49.28;;;25.17;;
61013;SDS011;46899;47.542;19.082;2024-01-30T07:04:19;50.22;;;24.75;;
61013;SDS011;46899;47.542;19.082;2024-01-30T07:07:22;43.90;;;24.02;;
61013;SDS011;46899;47.542;19.082;2024-01-30T07:10:27;47.75;;;24.58;;
61013;SDS011;46899;47.542;19.082;2024-01-30T07:13:30;51.33;;;25.40;;
61013;SDS011;46899;47.542;19.082;2024-01-30T07:16:33;43.25;;;24.33;;
61013;SDS011;46899;47.542;19.082;2024-01-30T07:19:36;45.08;;;25.02;;
61013;SDS011;46899;47.542;19.082;2024-01-30T07:22:39;43.33;;;23.62;;
61013;SDS011;46899;47.542;19.082;2024-01-30T07:25:45;46.83;;;25.67;;
61013;SDS011;46899;47.542;19.082;2024-01-30T07:28:52;47.65;;;25.05;;
61013;SDS011;46899;47.542;19.082;2024-01-30T07:31:55;45.35;;;24.40;;
61013;SDS011;46899;47.542;19.082;2024-01-30T07:34:58;45.12;;;23.77;;
61013;SDS011;46899;47.542;19.082;2024-01-30T07:38:10;47.40;;;25.65;;
61013;SDS011;46899;47.542;19.082;2024-01-30T07:41:12;45.92;;;25.92;;
61013;SDS011;46899;47.542;19.082;2024-01-30T07:44:15;46.92;;;26.25;;
61013;SDS011;46899;47.542;19.082;2024-01-30T07:47:18;43.33;;;24.58;;
61013;SDS011;46899;47.542;19.082;2024-01-30T07:50:21;41.08;;;24.48;;
61013;SDS011;46899;47.542;19.082;2024-01-30T07:53:24;40.17;;;24.23;;
61013;SDS011;46899;47.542;19.082;2024-01-30T07:56:27;40.58;;;25.08;;
61013;SDS011;46899;47.542;19.082;2024-01-30T07:59:30;44.42;;;26.42;;
61013;SDS011;46899;47.542;19.082;2024-01-30T08:02:33;51.58;;;25.67;;
61013;SDS011;46899;47.542;19.082;2024-01-30T08:05:35;43.40;;;25.20;;
61013;SDS011;46899;47.542;19.082;2024-01-30T08:08:38;45.38;;;25.27;;
61013;SDS011;46899;47.542;19.082;2024-01-30T08:11:41;42.92;;;26.17;;
61013;SDS011;46899;47.542;19.082;2024-01-30T08:14:44;43.22;;;25.60;;
61013;SDS011;46899;47.542;19.082;2024-01-30T08:17:46;39.78;;;23.87;;
61013;SDS011;46899;47.542;19.082;2024-01-30T08:20:49;42.50;;;24.52;;
61013;SDS011;46899;47.542;19.082;2024-01-30T08:23:52;39.67;;;22.83;;
61013;SDS011;46899;47.542;19.082;2024-01-30T08:26:55;43.63;;;23.67;;
61013;SDS011;46899;47.542;19.082;2024-01-30T08:29:57;38.90;;;23.25;;
61013;SDS011;46899;47.542;19.082;2024-01-30T08:33:00;39.05;;;23.42;;
61013;SDS011;46899;47.542;19.082;2024-01-30T08:36:03;36.72;;;22.13;;
61013;SDS011;46899;47.542;19.082;2024-01-30T08:39:06;39.33;;;22.37;;
61013;SDS011;46899;47.542;19.082;2024-01-30T08:42:09;39.13;;;22.55;;
61013;SDS011;46899;47.542;19.082;2024-01-30T08:45:12;38.90;;;22.80;;
61013;SDS011;46899;47.542;19.082;2024-01-30T08:48:15;34.70;;;22.65;;
61013;SDS011;46899;47.542;19.082;2024-01-30T08:51:20;32.83;;;20.27;;
61013;SDS011;46899;47.542;19.082;2024-01-30T08:54:23;33.63;;;20.85;;
61013;SDS011;46899;47.542;19.082;2024-01-30T08:57:26;35.65;;;21.55;;
61013;SDS011;46899;47.542;19.082;2024-01-30T09:00:31;36.42;;;21.55;;
61013;SDS011;46899;47.542;19.082;2024-01-30T09:03:34;33.90;;;20.40;;
61013;SDS011;46899;47.542;19.082;2024-01-30T09:06:36;32.00;;;20.42;;
61013;SDS011;46899;47.542;19.082;2024-01-30T09:09:41;32.22;;;20.62;;
61013;SDS011;46899;47.542;19.082;2024-01-30T09:12:45;31.27;;;19.87;;
61013;SDS011;46899;47.542;19.082;2024-01-30T09:15:47;33.47;;;21.10;;
61013;SDS011;46899;47.542;19.082;2024-01-30T09:18:51;33.35;;;21.33;;
61013;SDS011;46899;47.542;19.082;2024-01-30T09:21:54;32.78;;;21.10;;
61013;SDS011;46899;47.542;19.082;2024-01-30T09:24:57;36.97;;;21.75;;
61013;SDS011;46899;47.542;19.082;2024-01-30T09:28:00;35.58;;;20.90;;
61013;SDS011;46899;47.542;19.082;2024-01-30T09:31:03;32.75;;;20.40;;
61013;SDS011;46899;47.542;19.082;2024-01-30T09:34:06;32.97;;;21.12;;
61013;SDS011;46899;47.542;19.082;2024-01-30T09:37:09;32.67;;;20.58;;
61013;SDS011;46899;47.542;19.082;2024-01-30T09:40:12;31.85;;;21.50;;
61013;SDS011;46899;47.542;19.082;2024-01-30T09:43:16;34.80;;;21.58;;
61013;SDS011;46899;47.542;19.082;2024-01-30T09:46:26;29.30;;;19.77;;
61013;SDS011;46899;47.542;19.082;2024-01-30T09:49:32;33.22;;;20.02;;
61013;SDS011;46899;47.542;19.082;2024-01-30T09:52:35;34.55;;;20.73;;
61013;SDS011;46899;47.542;19.082;2024-01-30T09:55:38;38.00;;;22.02;;
61013;SDS011;46899;47.542;19.082;2024-01-30T09:58:45;34.95;;;21.02;;
61013;SDS011;46899;47.542;19.082;2024-01-30T10:01:48;36.08;;;20.92;;
61013;SDS011;46899;47.542;19.082;2024-01-30T10:04:53;33.15;;;20.67;;
61013;SDS011;46899;47.542;19.082;2024-01-30T10:07:59;33.80;;;20.67;;
61013;SDS011;46899;47.542;19.082;2024-01-30T10:11:02;32.05;;;20.55;;
61013;SDS011;46899;47.542;19.082;2024-01-30T10:14:05;37.03;;;21.20;;
61013;SDS011;46899;47.542;19.082;2024-01-30T10:17:08;37.72;;;22.10;;
61013;SDS011;46899;47.542;19.082;2024-01-30T10:20:24;35.77;;;22.27;;
61013;SDS011;46899;47.542;19.082;2024-01-30T10:23:28;35.45;;;21.98;;
61013;SDS011;46899;47.542;19.082;2024-01-30T10:26:37;36.63;;;22.05;;
61013;SDS011;46899;47.542;19.082;2024-01-30T10:29:40;34.17;;;22.30;;
61013;SDS011;46899;47.542;19.082;2024-01-30T10:32:43;34.22;;;21.90;;
61013;SDS011;46899;47.542;19.082;2024-01-30T10:35:46;35.67;;;19.30;;
61013;SDS011;46899;47.542;19.082;2024-01-30T10:38:49;27.65;;;16.95;;
61013;SDS011;46899;47.542;19.082;2024-01-30T10:41:53;27.83;;;17.37;;
61013;SDS011;46899;47.542;19.082;2024-01-30T10:45:08;30.98;;;17.08;;
61013;SDS011;46899;47.542;19.082;2024-01-30T10:48:15;29.67;;;17.85;;
61013;SDS011;46899;47.542;19.082;2024-01-30T10:51:26;29.73;;;18.30;;
61013;SDS011;46899;47.542;19.082;2024-01-30T10:54:30;26.35;;;16.95;;
61013;SDS011;46899;47.542;19.082;2024-01-30T10:57:35;28.83;;;16.52;;
61013;SDS011;46899;47.542;19.082;2024-01-30T11:00:39;24.05;;;15.57;;
61013;SDS011;46899;47.542;19.082;2024-01-30T11:03:41;24.58;;;15.50;;
61013;SDS011;46899;47.542;19.082;2024-01-30T11:06:45;31.37;;;16.73;;
61013;SDS011;46899;47.542;19.082;2024-01-30T11:09:48;25.12;;;17.30;;
61013;SDS011;46899;47.542;19.082;2024-01-30T11:13:09;24.87;;;15.68;;
61013;SDS011;46899;47.542;19.082;2024-01-30T11:16:12;21.23;;;14.52;;
61013;SDS011;46899;47.542;19.082;2024-01-30T11:19:15;21.12;;;14.82;;
61013;SDS011;46899;47.542;19.082;2024-01-30T11:22:26;23.62;;;15.15;;
61013;SDS011;46899;47.542;19.082;2024-01-30T11:25:29;23.60;;;14.55;;
61013;SDS011;46899;47.542;19.082;2024-01-30T11:28:35;25.55;;;15.65;;
61013;SDS011;46899;47.542;19.082;2024-01-30T11:31:51;24.08;;;15.77;;
61013;SDS011;46899;47.542;19.082;2024-01-30T11:34:55;25.27;;;16.80;;
61013;SDS011;46899;47.542;19.082;2024-01-30T11:37:58;23.92;;;16.17;;
61013;SDS011;46899;47.542;19.082;2024-01-30T11:41:02;25.02;;;15.63;;
61013;SDS011;46899;47.542;19.082;2024-01-30T11:44:07;24.60;;;14.87;;
61013;SDS011;46899;47.542;19.082;2024-01-30T11:47:09;24.08;;;15.25;;
61013;SDS011;46899;47.542;19.082;2024-01-30T11:50:12;24.15;;;15.48;;
61013;SDS011;46899;47.542;19.082;2024-01-30T11:53:16;21.95;;;14.82;;
61013;SDS011;46899;47.542;19.082;2024-01-30T11:56:19;21.95;;;14.80;;
61013;SDS011;46899;47.542;19.082;2024-01-30T11:59:22;22.73;;;12.20;;
61013;SDS011;46899;47.542;19.082;2024-01-30T12:02:25;18.95;;;13.80;;
61013;SDS011;46899;47.542;19.082;2024-01-30T12:09:01;21.87;;;13.82;;
61013;SDS011;46899;47.542;19.082;2024-01-30T12:12:10;18.62;;;12.70;;
61013;SDS011;46899;47.542;19.082;2024-01-30T12:15:14;19.87;;;12.88;;
61013;SDS011;46899;47.542;19.082;2024-01-30T12:18:18;22.10;;;12.98;;
61013;SDS011;46899;47.542;19.082;2024-01-30T12:21:22;19.48;;;11.43;;
61013;SDS011;46899;47.542;19.082;2024-01-30T12:24:27;19.37;;;11.82;;
61013;SDS011;46899;47.542;19.082;2024-01-30T12:27:30;16.17;;;10.82;;
61013;SDS011;46899;47.542;19.082;2024-01-30T12:30:34;22.33;;;12.43;;
61013;SDS011;46899;47.542;19.082;2024-01-30T12:33:37;18.35;;;11.80;;
61013;SDS011;46899;47.542;19.082;2024-01-30T12:36:40;16.50;;;11.48;;
61013;SDS011;46899;47.542;19.082;2024-01-30T12:39:43;18.42;;;11.70;;
61013;SDS011;46899;47.542;19.082;2024-01-30T12:42:47;17.48;;;9.50;;
61013;SDS011;46899;47.542;19.082;2024-01-30T12:48:55;14.43;;;8.68;;
61013;SDS011;46899;47.542;19.082;2024-01-30T12:51:59;18.10;;;10.38;;
61013;SDS011;46899;47.542;19.082;2024-01-30T12:55:02;18.85;;;11.35;;
61013;SDS011;46899;47.542;19.082;2024-01-30T12:58:06;17.05;;;10.70;;
61013;SDS011;46899;47.542;19.082;2024-01-30T13:01:09;13.02;;;8.10;;
61013;SDS011;46899;47.542;19.082;2024-01-30T13:04:13;14.55;;;8.55;;
61013;SDS011;46899;47.542;19.082;2024-01-30T13:07:16;14.40;;;8.60;;
61013;SDS011;46899;47.542;19.082;2024-01-30T13:10:19;13.85;;;8.75;;
61013;SDS011;46899;47.542;19.082;2024-01-30T13:13:22;14.73;;;9.60;;
61013;SDS011;46899;47.542;19.082;2024-01-30T13:16:25;14.63;;;8.75;;
61013;SDS011;46899;47.542;19.082;2024-01-30T13:19:28;14.90;;;8.35;;
61013;SDS011;46899;47.542;19.082;2024-01-30T13:22:31;12.15;;;7.75;;
61013;SDS011;46899;47.542;19.082;2024-01-30T13:25:34;14.13;;;8.75;;
61013;SDS011;46899;47.542;19.082;2024-01-30T13:28:37;13.80;;;7.60;;
61013;SDS011;46899;47.542;19.082;2024-01-30T13:31:40;9.70;;;7.07;;
61013;SDS011;46899;47.542;19.082;2024-01-30T13:34:43;11.63;;;7.32;;
61013;SDS011;46899;47.542;19.082;2024-01-30T13:37:46;13.95;;;7.97;;
61013;SDS011;46899;47.542;19.082;2024-01-30T13:40:50;11.90;;;8.23;;
61013;SDS011;46899;47.542;19.082;2024-01-30T13:43:53;12.70;;;7.97;;
61013;SDS011;46899;47.542;19.082;2024-01-30T13:46:56;11.27;;;7.65;;
61013;SDS011;46899;47.542;19.082;2024-01-30T13:49:59;13.80;;;6.80;;
61013;SDS011;46899;47.542;19.082;2024-01-30T13:53:02;11.73;;;7.22;;
61013;SDS011;46899;47.542;19.082;2024-01-30T13:56:06;10.48;;;6.80;;
61013;SDS011;46899;47.542;19.082;2024-01-30T13:59:09;9.85;;;6.20;;
61013;SDS011;46899;47.542;19.082;2024-01-30T14:02:12;10.32;;;6.28;;
61013;SDS011;46899;47.542;19.082;2024-01-30T14:05:15;9.35;;;6.35;;
61013;SDS011;46899;47.542;19.082;2024-01-30T14:08:18;9.85;;;6.25;;
61013;SDS011;46899;47.542;19.082;2024-01-30T14:11:24;11.65;;;7.05;;
61013;SDS011;46899;47.542;19.082;2024-01-30T14:14:26;8.95;;;6.15;;
61013;SDS011;46899;47.542;19.082;2024-01-30T14:17:29;11.30;;;6.95;;
61013;SDS011;46899;47.542;19.082;2024-01-30T14:20:32;11.43;;;7.10;;
61013;SDS011;46899;47.542;19.082;2024-01-30T14:23:35;11.12;;;6.37;;
61013;SDS011;46899;47.542;19.082;2024-01-30T14:26:38;12.32;;;6.30;;
61013;SDS011;46899;47.542;19.082;2024-01-30T14:29:41;10.98;;;6.50;;
61013;SDS011;46899;47.542;19.082;2024-01-30T14:32:45;13.15;;;6.65;;
61013;SDS011;46899;47.542;19.082;2024-01-30T14:35:49;9.57;;;6.28;;
61013;SDS011;46899;47.542;19.082;2024-01-30T14:38:53;10.43;;;6.97;;
61013;SDS011;46899;47.542;19.082;2024-01-30T14:41:57;10.23;;;6.50;;
61013;SDS011;46899;47.542;19.082;2024-01-30T14:45:00;9.60;;;6.62;;
61013;SDS011;46899;47.542;19.082;2024-01-30T14:48:03;15.18;;;7.03;;
61013;SDS011;46899;47.542;19.082;2024-01-30T14:51:06;13.18;;;7.15;;
61013;SDS011;46899;47.542;19.082;2024-01-30T14:54:09;10.80;;;7.90;;
61013;SDS011;46899;47.542;19.082;2024-01-30T14:57:11;12.60;;;7.62;;
61013;SDS011;46899;47.542;19.082;2024-01-30T15:00:16;12.52;;;7.85;;
61013;SDS011;46899;47.542;19.082;2024-01-30T15:03:19;12.23;;;7.25;;
61013;SDS011;46899;47.542;19.082;2024-01-30T15:06:32;10.55;;;7.45;;
61013;SDS011;46899;47.542;19.082;2024-01-30T15:09:35;11.88;;;8.07;;
61013;SDS011;46899;47.542;19.082;2024-01-30T15:12:38;14.38;;;8.55;;
61013;SDS011;46899;47.542;19.082;2024-01-30T15:15:41;11.60;;;7.80;;
61013;SDS011;46899;47.542;19.082;2024-01-30T15:18:45;14.75;;;8.18;;
61013;SDS011;46899;47.542;19.082;2024-01-30T15:21:47;14.55;;;8.15;;
61013;SDS011;46899;47.542;19.082;2024-01-30T15:24:50;14.55;;;8.50;;
61013;SDS011;46899;47.542;19.082;2024-01-30T15:27:53;16.45;;;8.55;;
61013;SDS011;46899;47.542;19.082;2024-01-30T15:30:56;12.18;;;8.02;;
61013;SDS011;46899;47.542;19.082;2024-01-30T15:34:00;15.70;;;8.50;;
61013;SDS011;46899;47.542;19.082;2024-01-30T15:37:03;13.23;;;8.30;;
61013;SDS011;46899;47.542;19.082;2024-01-30T15:40:06;13.20;;;8.27;;
61013;SDS011;46899;47.542;19.082;2024-01-30T15:43:11;13.20;;;8.30;;
61013;SDS011;46899;47.542;19.082;2024-01-30T15:46:14;17.60;;;8.77;;
61013;SDS011;46899;47.542;19.082;2024-01-30T15:49:17;13.02;;;8.85;;
61013;SDS011;46899;47.542;19.082;2024-01-30T15:52:20;15.57;;;8.95;;
61013;SDS011;46899;47.542;19.082;2024-01-30T15:55:23;13.95;;;8.85;;
61013;SDS011;46899;47.542;19.082;2024-01-30T15:58:26;14.13;;;9.02;;
61013;SDS011;46899;47.542;19.082;2024-01-30T16:01:29;14.45;;;8.43;;
61013;SDS011;46899;47.542;19.082;2024-01-30T16:04:33;15.15;;;9.35;;
61013;SDS011;46899;47.542;19.082;2024-01-30T16:07:35;16.90;;;9.55;;
61013;SDS011;46899;47.542;19.082;2024-01-30T16:10:38;26.85;;;14.68;;
61013;SDS011;46899;47.542;19.082;2024-01-30T16:13:41;17.55;;;10.50;;
61013;SDS011;46899;47.542;19.082;2024-01-30T16:16:45;15.38;;;9.93;;
61013;SDS011;46899;47.542;19.082;2024-01-30T16:19:48;18.67;;;10.13;;
61013;SDS011;46899;47.542;19.082;2024-01-30T16:23:00;24.10;;;10.20;;
61013;SDS011;46899;47.542;19.082;2024-01-30T16:26:03;17.73;;;10.02;;
61013;SDS011;46899;47.542;19.082;2024-01-30T16:29:06;16.52;;;10.32;;
61013;SDS011;46899;47.542;19.082;2024-01-30T16:32:09;16.75;;;10.02;;
61013;SDS011;46899;47.542;19.082;2024-01-30T16:35:12;18.12;;;10.68;;
61013;SDS011;46899;47.542;19.082;2024-01-30T16:38:15;23.05;;;11.00;;
61013;SDS011;46899;47.542;19.082;2024-01-30T16:41:18;17.05;;;10.60;;
61013;SDS011;46899;47.542;19.082;2024-01-30T16:44:21;14.70;;;9.73;;
61013;SDS011;46899;47.542;19.082;2024-01-30T16:47:24;19.62;;;10.35;;
61013;SDS011;46899;47.542;19.082;2024-01-30T16:50:26;20.27;;;10.48;;
61013;SDS011;46899;47.542;19.082;2024-01-30T16:53:29;25.83;;;12.25;;
61013;SDS011;46899;47.542;19.082;2024-01-30T16:56:32;24.10;;;12.10;;
61013;SDS011;46899;47.542;19.082;2024-01-30T16:59:35;27.60;;;13.05;;
61013;SDS011;46899;47.542;19.082;2024-01-30T17:02:38;30.08;;;15.82;;
61013;SDS011;46899;47.542;19.082;2024-01-30T17:05:41;34.28;;;16.37;;
61013;SDS011;46899;47.542;19.082;2024-01-30T17:08:43;37.20;;;18.45;;
61013;SDS011;46899;47.542;19.082;2024-01-30T17:11:46;31.77;;;17.87;;
61013;SDS011;46899;47.542;19.082;2024-01-30T17:14:49;30.12;;;17.73;;
61013;SDS011;46899;47.542;19.082;2024-01-30T17:17:53;30.67;;;17.87;;
61013;SDS011;46899;47.542;19.082;2024-01-30T17:20:56;30.15;;;17.27;;
61013;SDS011;46899;47.542;19.082;2024-01-30T17:24:00;31.98;;;18.65;;
61013;SDS011;46899;47.542;19.082;2024-01-30T17:27:05;38.30;;;21.08;;
61013;SDS011;46899;47.542;19.082;2024-01-30T17:30:10;33.33;;;20.75;;
61013;SDS011;46899;47.542;19.082;2024-01-30T17:33:14;43.20;;;22.98;;
61013;SDS011;46899;47.542;19.082;2024-01-30T17:36:18;42.55;;;23.25;;
61013;SDS011;46899;47.542;19.082;2024-01-30T17:39:20;42.47;;;23.60;;
61013;SDS011;46899;47.542;19.082;2024-01-30T17:42:23;39.90;;;23.42;;
61013;SDS011;46899;47.542;19.082;2024-01-30T17:45:27;43.05;;;23.95;;
61013;SDS011;46899;47.542;19.082;2024-01-30T17:48:30;44.47;;;23.83;;